sensor_id;sensor_type;location;lat;lon;timestamp;P1;durP1;ratioP1;P2;durP2;ratioP2
5549;SDS011;2798;42.716;23.256;2023-01-15T00:03:50;17.00;;;10.57;;
5549;SDS011;2798;42.716;23.256;2023-01-15T00:06:16;14.20;;;10.10;;
5549;SDS011;2798;42.716;23.256;2023-01-15T00:08:42;16.17;;;10.83;;
5549;SDS011;2798;42.716;23.256;2023-01-15T00:11:07;17.03;;;10.70;;
5549;SDS011;2798;42.716;23.256;2023-01-15T00:13:32;15.80;;;9.90;;
5549;SDS011;2798;42.716;23.256;2023-01-15T00:16:05;17.57;;;10.17;;
5549;SDS011;2798;42.716;23.256;2023-01-15T00:18:31;16.83;;;10.40;;
5549;SDS011;2798;42.716;23.256;2023-01-15T00:21:00;16.80;;;10.60;;
5549;SDS011;2798;42.716;23.256;2023-01-15T00:23:25;21.20;;;10.77;;
5549;SDS011;2798;42.716;23.256;2023-01-15T00:26:11;14.30;;;9.77;;
5549;SDS011;2798;42.716;23.256;2023-01-15T00:28:55;17.90;;;11.50;;
5549;SDS011;2798;42.716;23.256;2023-01-15T00:31:20;16.73;;;10.50;;
5549;SDS011;2798;42.716;23.256;2023-01-15T00:33:46;19.17;;;11.30;;
5549;SDS011;2798;42.716;23.256;2023-01-15T00:36:11;17.30;;;10.80;;
5549;SDS011;2798;42.716;23.256;2023-01-15T00:38:36;21.03;;;11.37;;
5549;SDS011;2798;42.716;23.256;2023-01-15T00:41:01;19.40;;;10.67;;
5549;SDS011;2798;42.716;23.256;2023-01-15T00:43:27;16.20;;;11.23;;
5549;SDS011;2798;42.716;23.256;2023-01-15T00:45:52;18.07;;;11.53;;
5549;SDS011;2798;42.716;23.256;2023-01-15T00:48:17;22.33;;;12.43;;
5549;SDS011;2798;42.716;23.256;2023-01-15T00:50:42;19.37;;;11.47;;
5549;SDS011;2798;42.716;23.256;2023-01-15T00:53:08;14.90;;;9.63;;
5549;SDS011;2798;42.716;23.256;2023-01-15T00:55:33;16.63;;;10.40;;
5549;SDS011;2798;42.716;23.256;2023-01-15T00:57:58;16.83;;;10.73;;
5549;SDS011;2798;42.716;23.256;2023-01-15T01:00:24;16.90;;;10.60;;
5549;SDS011;2798;42.716;23.256;2023-01-15T01:02:49;17.93;;;9.67;;
5549;SDS011;2798;42.716;23.256;2023-01-15T01:05:14;16.20;;;10.20;;
5549;SDS011;2798;42.716;23.256;2023-01-15T01:07:39;14.53;;;10.37;;
5549;SDS011;2798;42.716;23.256;2023-01-15T01:10:05;16.60;;;10.50;;
5549;SDS011;2798;42.716;23.256;2023-01-15T01:12:30;14.03;;;9.90;;
5549;SDS011;2798;42.716;23.256;2023-01-15T01:14:55;16.03;;;9.67;;
5549;SDS011;2798;42.716;23.256;2023-01-15T01:17:21;15.60;;;9.63;;
5549;SDS011;2798;42.716;23.256;2023-01-15T01:19:46;14.27;;;9.30;;
5549;SDS011;2798;42.716;23.256;2023-01-15T01:22:11;15.60;;;10.13;;
5549;SDS011;2798;42.716;23.256;2023-01-15T01:24:36;16.30;;;10.27;;
5549;SDS011;2798;42.716;23.256;2023-01-15T01:27:02;12.30;;;8.93;;
5549;SDS011;2798;42.716;23.256;2023-01-15T01:29:27;13.10;;;8.50;;
5549;SDS011;2798;42.716;23.256;2023-01-15T01:31:52;14.93;;;9.40;;
5549;SDS011;2798;42.716;23.256;2023-01-15T01:34:17;14.70;;;8.00;;
5549;SDS011;2798;42.716;23.256;2023-01-15T01:36:43;13.57;;;8.30;;
5549;SDS011;2798;42.716;23.256;2023-01-15T01:39:12;13.83;;;8.33;;
5549;SDS011;2798;42.716;23.256;2023-01-15T01:41:38;14.93;;;9.23;;
5549;SDS011;2798;42.716;23.256;2023-01-15T01:44:04;14.60;;;8.67;;
5549;SDS011;2798;42.716;23.256;2023-01-15T01:46:30;14.20;;;9.27;;
5549;SDS011;2798;42.716;23.256;2023-01-15T01:48:57;11.40;;;8.23;;
5549;SDS011;2798;42.716;23.256;2023-01-15T01:51:24;13.90;;;8.43;;
5549;SDS011;2798;42.716;23.256;2023-01-15T01:53:51;13.27;;;8.67;;
5549;SDS011;2798;42.716;23.256;2023-01-15T01:56:16;15.60;;;9.73;;
5549;SDS011;2798;42.716;23.256;2023-01-15T01:58:44;13.20;;;9.00;;
5549;SDS011;2798;42.716;23.256;2023-01-15T02:01:10;13.77;;;8.87;;
5549;SDS011;2798;42.716;23.256;2023-01-15T02:03:36;14.37;;;9.40;;
5549;SDS011;2798;42.716;23.256;2023-01-15T02:06:02;14.43;;;9.53;;
5549;SDS011;2798;42.716;23.256;2023-01-15T02:08:30;11.63;;;7.97;;
5549;SDS011;2798;42.716;23.256;2023-01-15T02:10:56;15.03;;;9.37;;
5549;SDS011;2798;42.716;23.256;2023-01-15T02:13:24;13.53;;;9.53;;
5549;SDS011;2798;42.716;23.256;2023-01-15T02:15:59;15.30;;;9.30;;
5549;SDS011;2798;42.716;23.256;2023-01-15T02:18:31;17.47;;;8.40;;
5549;SDS011;2798;42.716;23.256;2023-01-15T02:21:00;13.40;;;9.73;;
5549;SDS011;2798;42.716;23.256;2023-01-15T02:26:12;12.37;;;8.63;;
5549;SDS011;2798;42.716;23.256;2023-01-15T02:28:42;14.00;;;9.40;;
5549;SDS011;2798;42.716;23.256;2023-01-15T02:31:13;13.30;;;8.90;;
5549;SDS011;2798;42.716;23.256;2023-01-15T02:33:59;13.87;;;9.03;;
5549;SDS011;2798;42.716;23.256;2023-01-15T02:36:27;15.27;;;9.43;;
5549;SDS011;2798;42.716;23.256;2023-01-15T02:38:54;13.17;;;9.00;;
5549;SDS011;2798;42.716;23.256;2023-01-15T02:41:23;15.30;;;8.87;;
5549;SDS011;2798;42.716;23.256;2023-01-15T02:43:50;16.80;;;9.80;;
5549;SDS011;2798;42.716;23.256;2023-01-15T02:46:16;12.23;;;8.80;;
5549;SDS011;2798;42.716;23.256;2023-01-15T02:48:43;13.83;;;8.87;;
5549;SDS011;2798;42.716;23.256;2023-01-15T02:51:11;18.07;;;9.80;;
5549;SDS011;2798;42.716;23.256;2023-01-15T02:53:38;15.47;;;9.73;;
5549;SDS011;2798;42.716;23.256;2023-01-15T02:56:12;15.00;;;9.57;;
5549;SDS011;2798;42.716;23.256;2023-01-15T02:58:39;12.90;;;8.90;;
5549;SDS011;2798;42.716;23.256;2023-01-15T03:01:08;13.70;;;8.43;;
5549;SDS011;2798;42.716;23.256;2023-01-15T03:03:37;13.87;;;8.67;;
5549;SDS011;2798;42.716;23.256;2023-01-15T03:06:07;14.00;;;9.47;;
5549;SDS011;2798;42.716;23.256;2023-01-15T03:08:33;16.30;;;9.10;;
5549;SDS011;2798;42.716;23.256;2023-01-15T03:21:30;13.90;;;9.30;;
5549;SDS011;2798;42.716;23.256;2023-01-15T03:23:58;15.27;;;9.50;;
5549;SDS011;2798;42.716;23.256;2023-01-15T03:26:25;14.33;;;9.33;;
5549;SDS011;2798;42.716;23.256;2023-01-15T03:28:51;15.90;;;9.53;;
5549;SDS011;2798;42.716;23.256;2023-01-15T03:31:16;14.00;;;9.50;;
5549;SDS011;2798;42.716;23.256;2023-01-15T03:33:42;14.57;;;9.53;;
5549;SDS011;2798;42.716;23.256;2023-01-15T03:36:07;16.63;;;11.10;;
5549;SDS011;2798;42.716;23.256;2023-01-15T03:38:33;15.60;;;10.07;;
5549;SDS011;2798;42.716;23.256;2023-01-15T03:46:31;14.10;;;9.90;;
5549;SDS011;2798;42.716;23.256;2023-01-15T03:48:59;13.27;;;8.53;;
5549;SDS011;2798;42.716;23.256;2023-01-15T03:51:32;15.33;;;9.20;;
5549;SDS011;2798;42.716;23.256;2023-01-15T03:53:59;14.27;;;8.93;;
5549;SDS011;2798;42.716;23.256;2023-01-15T03:56:47;14.10;;;9.53;;
5549;SDS011;2798;42.716;23.256;2023-01-15T03:59:22;12.00;;;8.60;;
5549;SDS011;2798;42.716;23.256;2023-01-15T04:01:50;12.50;;;7.43;;
5549;SDS011;2798;42.716;23.256;2023-01-15T04:04:16;12.07;;;8.60;;
5549;SDS011;2798;42.716;23.256;2023-01-15T04:06:42;12.10;;;8.07;;
5549;SDS011;2798;42.716;23.256;2023-01-15T04:09:08;12.97;;;8.27;;
5549;SDS011;2798;42.716;23.256;2023-01-15T04:11:34;10.97;;;7.27;;
5549;SDS011;2798;42.716;23.256;2023-01-15T04:14:00;13.27;;;8.30;;
5549;SDS011;2798;42.716;23.256;2023-01-15T04:16:26;12.20;;;7.70;;
5549;SDS011;2798;42.716;23.256;2023-01-15T04:18:51;13.30;;;8.20;;
5549;SDS011;2798;42.716;23.256;2023-01-15T04:21:17;10.13;;;7.47;;
5549;SDS011;2798;42.716;23.256;2023-01-15T04:23:42;13.60;;;8.30;;
5549;SDS011;2798;42.716;23.256;2023-01-15T04:26:07;12.07;;;6.83;;
5549;SDS011;2798;42.716;23.256;2023-01-15T04:28:33;10.73;;;7.00;;
5549;SDS011;2798;42.716;23.256;2023-01-15T04:30:58;14.33;;;7.03;;
5549;SDS011;2798;42.716;23.256;2023-01-15T04:33:24;11.33;;;7.20;;
5549;SDS011;2798;42.716;23.256;2023-01-15T04:35:49;9.77;;;7.30;;
5549;SDS011;2798;42.716;23.256;2023-01-15T04:38:14;10.30;;;7.67;;
5549;SDS011;2798;42.716;23.256;2023-01-15T04:40:41;10.70;;;6.50;;
5549;SDS011;2798;42.716;23.256;2023-01-15T04:43:25;12.30;;;7.20;;
5549;SDS011;2798;42.716;23.256;2023-01-15T04:46:09;9.00;;;6.80;;
5549;SDS011;2798;42.716;23.256;2023-01-15T04:48:34;10.00;;;7.37;;
5549;SDS011;2798;42.716;23.256;2023-01-15T04:51:03;11.10;;;6.93;;
5549;SDS011;2798;42.716;23.256;2023-01-15T04:53:29;9.23;;;6.60;;
5549;SDS011;2798;42.716;23.256;2023-01-15T04:55:59;12.83;;;7.17;;
5549;SDS011;2798;42.716;23.256;2023-01-15T04:58:24;8.33;;;6.43;;
5549;SDS011;2798;42.716;23.256;2023-01-15T05:00:49;11.53;;;6.70;;
5549;SDS011;2798;42.716;23.256;2023-01-15T05:03:14;9.43;;;6.80;;
5549;SDS011;2798;42.716;23.256;2023-01-15T05:05:40;8.60;;;6.63;;
5549;SDS011;2798;42.716;23.256;2023-01-15T05:08:05;9.67;;;6.23;;
5549;SDS011;2798;42.716;23.256;2023-01-15T05:10:30;10.00;;;7.17;;
5549;SDS011;2798;42.716;23.256;2023-01-15T05:12:55;8.60;;;6.37;;
5549;SDS011;2798;42.716;23.256;2023-01-15T05:15:21;8.17;;;6.47;;
5549;SDS011;2798;42.716;23.256;2023-01-15T05:17:46;8.97;;;6.70;;
5549;SDS011;2798;42.716;23.256;2023-01-15T05:20:11;9.23;;;6.10;;
5549;SDS011;2798;42.716;23.256;2023-01-15T05:22:38;9.30;;;6.23;;
5549;SDS011;2798;42.716;23.256;2023-01-15T05:25:03;10.50;;;7.10;;
5549;SDS011;2798;42.716;23.256;2023-01-15T05:27:29;9.23;;;6.40;;
5549;SDS011;2798;42.716;23.256;2023-01-15T05:29:54;10.67;;;7.50;;
5549;SDS011;2798;42.716;23.256;2023-01-15T05:32:20;9.73;;;6.20;;
5549;SDS011;2798;42.716;23.256;2023-01-15T05:34:45;8.20;;;6.50;;
5549;SDS011;2798;42.716;23.256;2023-01-15T05:37:10;10.43;;;7.07;;
5549;SDS011;2798;42.716;23.256;2023-01-15T05:39:36;10.77;;;6.47;;
5549;SDS011;2798;42.716;23.256;2023-01-15T05:42:02;11.17;;;7.07;;
5549;SDS011;2798;42.716;23.256;2023-01-15T05:44:27;11.00;;;6.50;;
5549;SDS011;2798;42.716;23.256;2023-01-15T05:46:54;10.33;;;6.40;;
5549;SDS011;2798;42.716;23.256;2023-01-15T05:49:22;10.30;;;6.70;;
5549;SDS011;2798;42.716;23.256;2023-01-15T05:51:48;9.80;;;6.57;;
5549;SDS011;2798;42.716;23.256;2023-01-15T05:54:14;8.87;;;6.57;;
5549;SDS011;2798;42.716;23.256;2023-01-15T05:56:40;9.60;;;7.03;;
5549;SDS011;2798;42.716;23.256;2023-01-15T05:59:06;9.07;;;6.43;;
5549;SDS011;2798;42.716;23.256;2023-01-15T06:01:31;10.40;;;6.00;;
5549;SDS011;2798;42.716;23.256;2023-01-15T06:03:57;10.63;;;6.93;;
5549;SDS011;2798;42.716;23.256;2023-01-15T06:06:22;10.57;;;6.23;;
5549;SDS011;2798;42.716;23.256;2023-01-15T06:08:48;9.50;;;6.67;;
5549;SDS011;2798;42.716;23.256;2023-01-15T06:11:13;8.97;;;6.13;;
5549;SDS011;2798;42.716;23.256;2023-01-15T06:13:38;8.30;;;6.50;;
5549;SDS011;2798;42.716;23.256;2023-01-15T06:16:04;9.90;;;6.80;;
5549;SDS011;2798;42.716;23.256;2023-01-15T06:18:30;9.03;;;6.53;;
5549;SDS011;2798;42.716;23.256;2023-01-15T06:20:55;8.83;;;6.30;;
5549;SDS011;2798;42.716;23.256;2023-01-15T06:23:20;11.60;;;7.27;;
5549;SDS011;2798;42.716;23.256;2023-01-15T06:25:45;10.63;;;6.80;;
5549;SDS011;2798;42.716;23.256;2023-01-15T06:28:11;10.90;;;7.03;;
5549;SDS011;2798;42.716;23.256;2023-01-15T06:30:37;8.93;;;6.03;;
5549;SDS011;2798;42.716;23.256;2023-01-15T06:33:03;10.47;;;7.17;;
5549;SDS011;2798;42.716;23.256;2023-01-15T06:35:28;9.40;;;5.97;;
5549;SDS011;2798;42.716;23.256;2023-01-15T06:37:53;8.63;;;6.70;;
5549;SDS011;2798;42.716;23.256;2023-01-15T06:40:19;11.03;;;7.60;;
5549;SDS011;2798;42.716;23.256;2023-01-15T06:42:44;11.17;;;6.80;;
5549;SDS011;2798;42.716;23.256;2023-01-15T06:45:32;11.20;;;7.63;;
5549;SDS011;2798;42.716;23.256;2023-01-15T06:48:19;8.97;;;6.33;;
5549;SDS011;2798;42.716;23.256;2023-01-15T06:50:44;11.80;;;7.43;;
5549;SDS011;2798;42.716;23.256;2023-01-15T06:53:09;10.97;;;7.60;;
5549;SDS011;2798;42.716;23.256;2023-01-15T06:55:35;11.47;;;6.97;;
5549;SDS011;2798;42.716;23.256;2023-01-15T06:58:01;8.80;;;6.30;;
5549;SDS011;2798;42.716;23.256;2023-01-15T07:00:27;13.47;;;8.90;;
5549;SDS011;2798;42.716;23.256;2023-01-15T07:02:52;11.50;;;8.07;;
5549;SDS011;2798;42.716;23.256;2023-01-15T07:05:17;10.47;;;7.27;;
5549;SDS011;2798;42.716;23.256;2023-01-15T07:07:42;10.50;;;7.30;;
5549;SDS011;2798;42.716;23.256;2023-01-15T07:10:08;11.10;;;8.03;;
5549;SDS011;2798;42.716;23.256;2023-01-15T07:12:33;11.67;;;7.67;;
5549;SDS011;2798;42.716;23.256;2023-01-15T07:14:59;15.97;;;9.60;;
5549;SDS011;2798;42.716;23.256;2023-01-15T07:17:24;15.10;;;8.40;;
5549;SDS011;2798;42.716;23.256;2023-01-15T07:19:49;12.13;;;8.27;;
5549;SDS011;2798;42.716;23.256;2023-01-15T07:22:14;15.67;;;9.60;;
5549;SDS011;2798;42.716;23.256;2023-01-15T07:24:40;14.93;;;9.50;;
5549;SDS011;2798;42.716;23.256;2023-01-15T07:27:05;14.70;;;8.77;;
5549;SDS011;2798;42.716;23.256;2023-01-15T07:29:30;13.90;;;9.87;;
5549;SDS011;2798;42.716;23.256;2023-01-15T07:31:58;15.40;;;9.67;;
5549;SDS011;2798;42.716;23.256;2023-01-15T07:34:23;13.90;;;9.60;;
5549;SDS011;2798;42.716;23.256;2023-01-15T07:36:49;16.20;;;9.53;;
5549;SDS011;2798;42.716;23.256;2023-01-15T07:39:14;18.40;;;11.67;;
5549;SDS011;2798;42.716;23.256;2023-01-15T07:41:40;20.87;;;13.20;;
5549;SDS011;2798;42.716;23.256;2023-01-15T07:44:24;25.67;;;14.73;;
5549;SDS011;2798;42.716;23.256;2023-01-15T07:47:18;20.80;;;14.47;;
5549;SDS011;2798;42.716;23.256;2023-01-15T07:50:02;20.27;;;14.00;;
5549;SDS011;2798;42.716;23.256;2023-01-15T07:52:28;22.47;;;15.60;;
5549;SDS011;2798;42.716;23.256;2023-01-15T07:54:53;20.03;;;14.00;;
5549;SDS011;2798;42.716;23.256;2023-01-15T07:57:19;25.00;;;14.53;;
5549;SDS011;2798;42.716;23.256;2023-01-15T07:59:45;21.60;;;13.60;;
5549;SDS011;2798;42.716;23.256;2023-01-15T08:02:10;19.73;;;14.20;;
5549;SDS011;2798;42.716;23.256;2023-01-15T08:04:37;20.73;;;13.97;;
5549;SDS011;2798;42.716;23.256;2023-01-15T08:07:02;19.20;;;12.27;;
5549;SDS011;2798;42.716;23.256;2023-01-15T08:09:28;17.77;;;12.40;;
5549;SDS011;2798;42.716;23.256;2023-01-15T08:11:54;21.53;;;12.10;;
5549;SDS011;2798;42.716;23.256;2023-01-15T08:14:38;21.07;;;11.67;;
5549;SDS011;2798;42.716;23.256;2023-01-15T08:17:22;15.43;;;10.77;;
5549;SDS011;2798;42.716;23.256;2023-01-15T08:19:47;28.30;;;11.67;;
5549;SDS011;2798;42.716;23.256;2023-01-15T08:22:12;15.10;;;11.10;;
5549;SDS011;2798;42.716;23.256;2023-01-15T08:24:38;20.43;;;9.93;;
5549;SDS011;2798;42.716;23.256;2023-01-15T08:27:03;17.87;;;10.47;;
5549;SDS011;2798;42.716;23.256;2023-01-15T08:29:28;17.83;;;8.57;;
5549;SDS011;2798;42.716;23.256;2023-01-15T08:31:54;13.67;;;8.87;;
5549;SDS011;2798;42.716;23.256;2023-01-15T08:34:19;15.53;;;9.20;;
5549;SDS011;2798;42.716;23.256;2023-01-15T08:36:44;12.23;;;9.10;;
5549;SDS011;2798;42.716;23.256;2023-01-15T08:39:10;19.40;;;9.67;;
5549;SDS011;2798;42.716;23.256;2023-01-15T08:41:35;12.70;;;8.50;;
5549;SDS011;2798;42.716;23.256;2023-01-15T08:44:00;13.33;;;9.00;;
5549;SDS011;2798;42.716;23.256;2023-01-15T08:46:26;14.70;;;8.77;;
5549;SDS011;2798;42.716;23.256;2023-01-15T08:48:51;18.07;;;8.80;;
5549;SDS011;2798;42.716;23.256;2023-01-15T08:51:17;14.40;;;8.73;;
5549;SDS011;2798;42.716;23.256;2023-01-15T08:53:43;12.13;;;8.57;;
5549;SDS011;2798;42.716;23.256;2023-01-15T08:56:12;12.30;;;7.60;;
5549;SDS011;2798;42.716;23.256;2023-01-15T08:58:37;11.83;;;8.30;;
5549;SDS011;2798;42.716;23.256;2023-01-15T09:01:04;11.80;;;8.60;;
5549;SDS011;2798;42.716;23.256;2023-01-15T09:03:30;10.07;;;7.70;;
5549;SDS011;2798;42.716;23.256;2023-01-15T09:05:57;13.83;;;8.20;;
5549;SDS011;2798;42.716;23.256;2023-01-15T09:08:22;12.07;;;8.43;;
5549;SDS011;2798;42.716;23.256;2023-01-15T09:10:48;10.90;;;7.63;;
5549;SDS011;2798;42.716;23.256;2023-01-15T09:13:14;11.23;;;8.07;;
5549;SDS011;2798;42.716;23.256;2023-01-15T09:15:39;14.53;;;8.27;;
5549;SDS011;2798;42.716;23.256;2023-01-15T09:18:04;10.07;;;7.53;;
5549;SDS011;2798;42.716;23.256;2023-01-15T09:20:30;9.00;;;6.77;;
5549;SDS011;2798;42.716;23.256;2023-01-15T09:22:55;10.60;;;7.53;;
5549;SDS011;2798;42.716;23.256;2023-01-15T09:25:20;11.47;;;7.50;;
5549;SDS011;2798;42.716;23.256;2023-01-15T09:27:48;10.00;;;6.73;;
5549;SDS011;2798;42.716;23.256;2023-01-15T09:30:19;10.93;;;7.60;;
5549;SDS011;2798;42.716;23.256;2023-01-15T09:32:44;10.17;;;6.90;;
5549;SDS011;2798;42.716;23.256;2023-01-15T09:35:10;8.93;;;7.53;;
5549;SDS011;2798;42.716;23.256;2023-01-15T09:37:35;10.13;;;7.23;;
5549;SDS011;2798;42.716;23.256;2023-01-15T09:40:00;12.60;;;7.77;;
5549;SDS011;2798;42.716;23.256;2023-01-15T09:45:08;15.10;;;6.63;;
5549;SDS011;2798;42.716;23.256;2023-01-15T09:47:39;13.23;;;7.47;;
5549;SDS011;2798;42.716;23.256;2023-01-15T09:55:31;11.77;;;7.57;;
5549;SDS011;2798;42.716;23.256;2023-01-15T09:57:58;12.70;;;8.10;;
5549;SDS011;2798;42.716;23.256;2023-01-15T10:00:25;12.70;;;7.87;;
5549;SDS011;2798;42.716;23.256;2023-01-15T10:05:40;15.17;;;8.40;;
5549;SDS011;2798;42.716;23.256;2023-01-15T10:10:46;8.53;;;6.20;;
5549;SDS011;2798;42.716;23.256;2023-01-15T10:15:55;10.23;;;5.80;;
5549;SDS011;2798;42.716;23.256;2023-01-15T10:18:24;12.60;;;6.67;;
5549;SDS011;2798;42.716;23.256;2023-01-15T10:23:37;10.80;;;6.50;;
5549;SDS011;2798;42.716;23.256;2023-01-15T10:28:46;14.10;;;7.20;;
5549;SDS011;2798;42.716;23.256;2023-01-15T10:31:16;8.67;;;6.47;;
5549;SDS011;2798;42.716;23.256;2023-01-15T10:38:45;16.63;;;10.37;;
5549;SDS011;2798;42.716;23.256;2023-01-15T10:46:26;21.10;;;14.13;;
5549;SDS011;2798;42.716;23.256;2023-01-15T10:48:56;23.27;;;14.90;;
5549;SDS011;2798;42.716;23.256;2023-01-15T10:51:25;23.90;;;15.30;;
5549;SDS011;2798;42.716;23.256;2023-01-15T10:56:20;24.57;;;15.00;;
5549;SDS011;2798;42.716;23.256;2023-01-15T11:01:41;23.20;;;14.07;;
5549;SDS011;2798;42.716;23.256;2023-01-15T11:04:08;22.80;;;14.40;;
5549;SDS011;2798;42.716;23.256;2023-01-15T11:06:33;21.50;;;14.73;;
5549;SDS011;2798;42.716;23.256;2023-01-15T11:08:59;20.27;;;12.97;;
5549;SDS011;2798;42.716;23.256;2023-01-15T11:14:09;23.83;;;12.13;;
5549;SDS011;2798;42.716;23.256;2023-01-15T11:16:52;16.37;;;12.00;;
5549;SDS011;2798;42.716;23.256;2023-01-15T11:19:34;15.37;;;10.57;;
5549;SDS011;2798;42.716;23.256;2023-01-15T11:22:13;18.90;;;11.17;;
5549;SDS011;2798;42.716;23.256;2023-01-15T11:24:53;18.97;;;10.70;;
5549;SDS011;2798;42.716;23.256;2023-01-15T11:27:19;17.10;;;11.20;;
5549;SDS011;2798;42.716;23.256;2023-01-15T11:29:50;17.00;;;10.70;;
5549;SDS011;2798;42.716;23.256;2023-01-15T11:32:17;14.47;;;9.77;;
5549;SDS011;2798;42.716;23.256;2023-01-15T11:34:51;15.60;;;10.00;;
5549;SDS011;2798;42.716;23.256;2023-01-15T11:37:16;17.10;;;10.80;;
5549;SDS011;2798;42.716;23.256;2023-01-15T11:39:42;14.50;;;10.00;;
5549;SDS011;2798;42.716;23.256;2023-01-15T11:42:15;15.23;;;10.50;;
5549;SDS011;2798;42.716;23.256;2023-01-15T11:45:00;17.30;;;11.10;;
5549;SDS011;2798;42.716;23.256;2023-01-15T11:47:51;17.47;;;10.30;;
5549;SDS011;2798;42.716;23.256;2023-01-15T11:50:37;17.67;;;11.40;;
5549;SDS011;2798;42.716;23.256;2023-01-15T11:53:14;18.00;;;11.27;;
5549;SDS011;2798;42.716;23.256;2023-01-15T11:55:50;17.73;;;10.40;;
5549;SDS011;2798;42.716;23.256;2023-01-15T11:58:16;16.37;;;9.57;;
5549;SDS011;2798;42.716;23.256;2023-01-15T12:00:41;15.43;;;10.73;;
5549;SDS011;2798;42.716;23.256;2023-01-15T12:03:15;14.47;;;9.43;;
5549;SDS011;2798;42.716;23.256;2023-01-15T12:05:45;14.20;;;9.83;;
5549;SDS011;2798;42.716;23.256;2023-01-15T12:08:21;15.20;;;9.70;;
5549;SDS011;2798;42.716;23.256;2023-01-15T12:10:56;18.40;;;10.90;;
5549;SDS011;2798;42.716;23.256;2023-01-15T12:26:33;13.90;;;9.03;;
5549;SDS011;2798;42.716;23.256;2023-01-15T12:29:03;12.30;;;9.10;;
5549;SDS011;2798;42.716;23.256;2023-01-15T12:31:35;11.83;;;9.30;;
5549;SDS011;2798;42.716;23.256;2023-01-15T12:34:05;14.07;;;9.37;;
5549;SDS011;2798;42.716;23.256;2023-01-15T12:37:19;14.50;;;9.47;;
5549;SDS011;2798;42.716;23.256;2023-01-15T12:39:19;13.73;;;8.60;;
5549;SDS011;2798;42.716;23.256;2023-01-15T12:41:48;12.47;;;8.57;;
5549;SDS011;2798;42.716;23.256;2023-01-15T12:47:23;17.97;;;9.80;;
5549;SDS011;2798;42.716;23.256;2023-01-15T12:49:54;10.40;;;8.17;;
5549;SDS011;2798;42.716;23.256;2023-01-15T12:52:23;13.80;;;8.77;;
5549;SDS011;2798;42.716;23.256;2023-01-15T12:55:00;13.30;;;8.47;;
5549;SDS011;2798;42.716;23.256;2023-01-15T12:57:30;14.27;;;9.40;;
5549;SDS011;2798;42.716;23.256;2023-01-15T12:59:58;10.90;;;8.03;;
5549;SDS011;2798;42.716;23.256;2023-01-15T13:03:14;12.47;;;7.73;;
5549;SDS011;2798;42.716;23.256;2023-01-15T13:07:54;12.57;;;7.73;;
5549;SDS011;2798;42.716;23.256;2023-01-15T13:10:24;12.00;;;7.90;;
5549;SDS011;2798;42.716;23.256;2023-01-15T13:12:54;12.33;;;7.90;;
5549;SDS011;2798;42.716;23.256;2023-01-15T13:15:20;10.80;;;7.83;;
5549;SDS011;2798;42.716;23.256;2023-01-15T13:18:01;10.63;;;7.93;;
5549;SDS011;2798;42.716;23.256;2023-01-15T13:20:48;11.87;;;7.40;;
5549;SDS011;2798;42.716;23.256;2023-01-15T13:34:12;10.57;;;7.47;;
5549;SDS011;2798;42.716;23.256;2023-01-15T13:36:41;10.57;;;7.70;;
5549;SDS011;2798;42.716;23.256;2023-01-15T13:39:10;10.40;;;7.70;;
5549;SDS011;2798;42.716;23.256;2023-01-15T13:41:40;11.20;;;8.23;;
5549;SDS011;2798;42.716;23.256;2023-01-15T13:44:24;10.47;;;7.10;;
5549;SDS011;2798;42.716;23.256;2023-01-15T13:47:02;11.07;;;7.80;;
5549;SDS011;2798;42.716;23.256;2023-01-15T13:50:02;10.27;;;7.87;;
5549;SDS011;2798;42.716;23.256;2023-01-15T13:54:56;11.03;;;8.33;;
5549;SDS011;2798;42.716;23.256;2023-01-15T13:57:33;14.90;;;8.90;;
5549;SDS011;2798;42.716;23.256;2023-01-15T13:59:59;13.17;;;8.10;;
5549;SDS011;2798;42.716;23.256;2023-01-15T14:02:26;13.70;;;8.37;;
5549;SDS011;2798;42.716;23.256;2023-01-15T14:04:52;11.80;;;8.00;;
5549;SDS011;2798;42.716;23.256;2023-01-15T14:07:38;11.97;;;8.30;;
5549;SDS011;2798;42.716;23.256;2023-01-15T14:12:53;11.17;;;8.17;;
5549;SDS011;2798;42.716;23.256;2023-01-15T14:15:23;12.80;;;8.70;;
5549;SDS011;2798;42.716;23.256;2023-01-15T14:25:18;10.50;;;7.90;;
5549;SDS011;2798;42.716;23.256;2023-01-15T14:27:52;9.70;;;8.00;;
5549;SDS011;2798;42.716;23.256;2023-01-15T14:35:13;10.67;;;8.13;;
5549;SDS011;2798;42.716;23.256;2023-01-15T14:40:47;12.90;;;8.23;;
5549;SDS011;2798;42.716;23.256;2023-01-15T14:43:09;14.40;;;9.70;;
5549;SDS011;2798;42.716;23.256;2023-01-15T14:45:42;12.90;;;9.80;;
5549;SDS011;2798;42.716;23.256;2023-01-15T14:48:19;18.00;;;10.70;;
5549;SDS011;2798;42.716;23.256;2023-01-15T14:50:44;14.30;;;10.67;;
5549;SDS011;2798;42.716;23.256;2023-01-15T14:55:48;18.83;;;11.57;;
5549;SDS011;2798;42.716;23.256;2023-01-15T15:00:59;15.20;;;10.20;;
5549;SDS011;2798;42.716;23.256;2023-01-15T15:03:29;14.80;;;9.43;;
5549;SDS011;2798;42.716;23.256;2023-01-15T15:05:57;16.00;;;11.63;;
5549;SDS011;2798;42.716;23.256;2023-01-15T15:08:22;18.80;;;12.13;;
5549;SDS011;2798;42.716;23.256;2023-01-15T15:10:52;19.40;;;10.90;;
5549;SDS011;2798;42.716;23.256;2023-01-15T15:13:26;14.77;;;9.90;;
5549;SDS011;2798;42.716;23.256;2023-01-15T15:18:47;18.60;;;9.60;;
5549;SDS011;2798;42.716;23.256;2023-01-15T15:21:19;14.77;;;9.60;;
5549;SDS011;2798;42.716;23.256;2023-01-15T15:23:57;15.67;;;10.90;;
5549;SDS011;2798;42.716;23.256;2023-01-15T15:26:30;16.47;;;8.43;;
5549;SDS011;2798;42.716;23.256;2023-01-15T15:28:59;17.53;;;9.10;;
5549;SDS011;2798;42.716;23.256;2023-01-15T15:31:25;14.60;;;10.40;;
5549;SDS011;2798;42.716;23.256;2023-01-15T15:33:51;14.60;;;9.70;;
5549;SDS011;2798;42.716;23.256;2023-01-15T15:36:17;15.80;;;10.27;;
5549;SDS011;2798;42.716;23.256;2023-01-15T15:38:50;14.47;;;10.40;;
5549;SDS011;2798;42.716;23.256;2023-01-15T15:41:16;15.50;;;10.07;;
5549;SDS011;2798;42.716;23.256;2023-01-15T15:44:01;19.00;;;11.80;;
5549;SDS011;2798;42.716;23.256;2023-01-15T15:46:48;17.47;;;11.00;;
5549;SDS011;2798;42.716;23.256;2023-01-15T15:49:39;17.67;;;11.00;;
5549;SDS011;2798;42.716;23.256;2023-01-15T15:52:14;16.13;;;10.87;;
5549;SDS011;2798;42.716;23.256;2023-01-15T15:54:39;15.00;;;10.40;;
5549;SDS011;2798;42.716;23.256;2023-01-15T15:57:14;18.53;;;10.90;;
5549;SDS011;2798;42.716;23.256;2023-01-15T15:59:45;17.40;;;10.47;;
5549;SDS011;2798;42.716;23.256;2023-01-15T16:04:42;20.40;;;11.27;;
5549;SDS011;2798;42.716;23.256;2023-01-15T16:07:11;17.57;;;11.00;;
5549;SDS011;2798;42.716;23.256;2023-01-15T16:09:36;18.20;;;12.30;;
5549;SDS011;2798;42.716;23.256;2023-01-15T16:12:03;24.93;;;14.03;;
5549;SDS011;2798;42.716;23.256;2023-01-15T16:14:33;49.00;;;26.13;;
5549;SDS011;2798;42.716;23.256;2023-01-15T16:16:58;33.93;;;19.80;;
5549;SDS011;2798;42.716;23.256;2023-01-15T16:19:24;37.90;;;20.60;;
5549;SDS011;2798;42.716;23.256;2023-01-15T16:21:50;31.40;;;19.97;;
5549;SDS011;2798;42.716;23.256;2023-01-15T16:24:27;25.80;;;17.03;;
5549;SDS011;2798;42.716;23.256;2023-01-15T16:26:54;25.90;;;16.10;;
5549;SDS011;2798;42.716;23.256;2023-01-15T16:29:21;22.23;;;14.37;;
5549;SDS011;2798;42.716;23.256;2023-01-15T16:31:48;20.50;;;13.33;;
5549;SDS011;2798;42.716;23.256;2023-01-15T16:34:20;26.80;;;14.20;;
5549;SDS011;2798;42.716;23.256;2023-01-15T16:36:46;27.57;;;16.10;;
5549;SDS011;2798;42.716;23.256;2023-01-15T16:41:56;27.00;;;16.03;;
5549;SDS011;2798;42.716;23.256;2023-01-15T16:44:40;28.73;;;16.60;;
5549;SDS011;2798;42.716;23.256;2023-01-15T16:47:27;23.03;;;14.50;;
5549;SDS011;2798;42.716;23.256;2023-01-15T16:49:56;23.50;;;15.00;;
5549;SDS011;2798;42.716;23.256;2023-01-15T16:52:51;25.57;;;16.30;;
5549;SDS011;2798;42.716;23.256;2023-01-15T17:00:41;29.57;;;16.70;;
5549;SDS011;2798;42.716;23.256;2023-01-15T17:03:14;25.27;;;15.63;;
5549;SDS011;2798;42.716;23.256;2023-01-15T17:05:40;28.80;;;16.20;;